Time;durP1;ratioP1;P1;durP2;ratioP2;P2;SDS_P1;SDS_P2;PMS_P1;PMS_P2;Temp;Humidity;BMP_temperature;BMP_pressure;BME280_temperature;BME280_humidity;BME280_pressure;Samples;Min_cycle;Max_cycle;Signal;HPM_P1;HPM_P2
2021/05/02 00:00:28;;;;;;;51.75;34.72;;;6.90;99.90;;;;;;4952296;29;20213;-80
2021/05/02 00:02:56;;;;;;;45.03;34.30;;;7.00;99.90;;;;;;4951150;29;20786;-81
2021/05/02 00:05:25;;;;;;;40.45;28.10;;;7.00;99.90;;;;;;4952305;29;20205;-80
2021/05/02 00:07:52;;;;;;;49.15;35.05;;;6.90;99.90;;;;;;4952224;29;20683;-80
2021/05/02 00:10:19;;;;;;;42.45;32.40;;;6.80;99.90;;;;;;4951838;29;20616;-81
2021/05/02 00:12:46;;;;;;;50.17;31.25;;;6.80;99.90;;;;;;4947158;29;20237;-83
2021/05/02 00:15:16;;;;;;;44.28;32.55;;;6.80;99.90;;;;;;4940667;29;20578;-83
2021/05/02 00:17:44;;;;;;;46.38;32.85;;;6.80;99.90;;;;;;4940181;29;20220;-82
2021/05/02 00:20:13;;;;;;;43.85;32.10;;;6.80;99.90;;;;;;4940687;29;20209;-83
2021/05/02 00:22:44;;;;;;;43.35;29.63;;;6.80;99.90;;;;;;4939834;29;20273;-84
2021/05/02 00:25:12;;;;;;;50.28;36.40;;;6.80;99.90;;;;;;4940502;29;20210;-82
2021/05/02 00:27:39;;;;;;;37.63;27.25;;;6.70;99.90;;;;;;4940063;29;20218;-82
2021/05/02 00:30:06;;;;;;;41.13;30.88;;;6.70;99.90;;;;;;4940303;29;20213;-83
2021/05/02 00:32:33;;;;;;;48.53;33.60;;;6.70;99.90;;;;;;4940073;29;20209;-83
2021/05/02 00:35:01;;;;;;;42.45;32.75;;;6.60;99.90;;;;;;4939376;29;20213;-84
2021/05/02 00:37:28;;;;;;;45.05;33.00;;;6.70;99.90;;;;;;4940072;29;20213;-84
2021/05/02 00:39:56;;;;;;;39.20;30.83;;;6.70;99.90;;;;;;4940958;29;20248;-83
2021/05/02 00:42:26;;;;;;;46.55;31.58;;;6.60;99.90;;;;;;4940457;29;20221;-83
2021/05/02 00:45:01;;;;;;;43.53;34.13;;;6.70;99.90;;;;;;4940525;29;20229;-83
2021/05/02 00:47:33;;;;;;;44.85;30.27;;;6.70;99.90;;;;;;4940415;29;20207;-83
2021/05/02 00:50:07;;;;;;;38.17;29.80;;;6.70;99.90;;;;;;4939066;29;20217;-83
2021/05/02 00:52:38;;;;;;;40.70;32.50;;;6.60;99.90;;;;;;4939908;29;20209;-82
2021/05/02 00:55:07;;;;;;;41.88;32.88;;;6.70;99.90;;;;;;4940018;29;20206;-83
2021/05/02 00:57:44;;;;;;;42.92;29.25;;;6.60;99.90;;;;;;4940630;29;20583;-83
2021/05/02 01:00:12;;;;;;;39.72;28.95;;;6.60;99.90;;;;;;4940350;29;20217;-83
2021/05/02 01:02:42;;;;;;;48.08;33.25;;;6.50;99.90;;;;;;4940011;29;20229;-83
2021/05/02 01:05:11;;;;;;;47.15;36.33;;;6.50;99.90;;;;;;4940289;29;20229;-83
2021/05/02 01:07:39;;;;;;;47.88;33.95;;;6.50;99.90;;;;;;4940382;29;20221;-82
2021/05/02 01:10:10;;;;;;;51.45;35.10;;;6.50;99.90;;;;;;4940974;29;20213;-81
2021/05/02 01:12:43;;;;;;;47.65;36.92;;;6.50;99.90;;;;;;4940250;29;20229;-83
2021/05/02 01:15:12;;;;;;;43.58;34.50;;;6.50;99.90;;;;;;4940413;29;20205;-83
2021/05/02 01:17:43;;;;;;;49.28;34.65;;;6.60;99.90;;;;;;4940033;29;20573;-83
2021/05/02 01:20:12;;;;;;;56.55;35.83;;;6.60;99.90;;;;;;4940839;29;20217;-82
2021/05/02 01:22:42;;;;;;;49.60;32.70;;;6.60;99.90;;;;;;4940460;29;20225;-83
2021/05/02 01:25:11;;;;;;;49.17;34.70;;;6.60;99.90;;;;;;4940784;29;20599;-83
2021/05/02 01:27:37;;;;;;;45.25;32.60;;;6.50;99.90;;;;;;4940944;29;20209;-83
2021/05/02 01:30:07;;;;;;;47.10;33.13;;;6.60;99.90;;;;;;4941054;29;20240;-83
2021/05/02 01:32:34;;;;;;;48.15;36.95;;;6.60;99.90;;;;;;4939886;29;20233;-82
2021/05/02 01:35:00;;;;;;;48.22;34.30;;;6.60;99.90;;;;;;4939849;29;20217;-82
2021/05/02 01:37:27;;;;;;;52.95;35.70;;;6.60;99.90;;;;;;4947638;29;20220;-81
2021/05/02 01:39:53;;;;;;;46.20;34.33;;;6.60;99.90;;;;;;4947401;29;20206;-80
2021/05/02 01:42:20;;;;;;;40.67;32.08;;;6.50;99.90;;;;;;4940429;29;20203;-81
2021/05/02 01:44:47;;;;;;;52.67;37.30;;;6.50;99.90;;;;;;4937963;29;20707;-83
2021/05/02 01:47:17;;;;;;;53.15;34.70;;;6.50;99.90;;;;;;4933510;29;20279;-84
2021/05/02 01:49:48;;;;;;;44.60;32.97;;;6.50;99.90;;;;;;4928558;29;20218;-84
2021/05/02 01:52:17;;;;;;;51.78;34.83;;;6.50;99.90;;;;;;4925504;29;20218;-84
2021/05/02 01:54:44;;;;;;;47.25;33.92;;;6.50;99.90;;;;;;4925859;29;20213;-84
2021/05/02 01:57:16;;;;;;;51.67;36.17;;;6.50;99.90;;;;;;4926275;29;20217;-84
2021/05/02 01:59:45;;;;;;;43.95;33.10;;;6.50;99.90;;;;;;4926137;29;20210;-84
2021/05/02 02:02:12;;;;;;;45.42;35.95;;;6.50;99.90;;;;;;4926394;29;20218;-83
2021/05/02 02:04:43;;;;;;;43.15;34.72;;;6.40;99.90;;;;;;4924129;29;20232;-83
2021/05/02 02:07:12;;;;;;;44.47;34.22;;;6.50;99.90;;;;;;4925197;29;20692;-84
2021/05/02 02:09:39;;;;;;;44.40;33.22;;;6.50;99.90;;;;;;4924955;29;20222;-83
2021/05/02 02:12:08;;;;;;;41.60;32.50;;;6.50;99.90;;;;;;4924080;29;20218;-84
2021/05/02 02:14:36;;;;;;;37.67;30.95;;;6.50;99.90;;;;;;4925541;29;20226;-84
2021/05/02 02:17:04;;;;;;;43.13;31.25;;;6.40;99.90;;;;;;4926856;29;20207;-84
2021/05/02 02:19:30;;;;;;;45.17;35.00;;;6.40;99.90;;;;;;4926487;29;20325;-84
2021/05/02 02:21:59;;;;;;;40.50;32.45;;;6.40;99.90;;;;;;4925916;29;20589;-84
2021/05/02 02:24:39;;;;;;;43.70;31.58;;;6.40;99.90;;;;;;4927404;29;20345;-83
2021/05/02 02:27:08;;;;;;;45.63;34.50;;;6.40;99.90;;;;;;4927924;29;20206;-84
2021/05/02 02:29:38;;;;;;;41.35;32.28;;;6.40;99.90;;;;;;4928061;29;20210;-84
2021/05/02 02:32:09;;;;;;;44.38;32.78;;;6.40;99.90;;;;;;4928078;29;20190;-84
2021/05/02 02:34:40;;;;;;;47.75;34.42;;;6.40;99.90;;;;;;4927923;29;20226;-83
2021/05/02 02:37:07;;;;;;;50.50;37.50;;;6.40;99.90;;;;;;4927821;29;20210;-84
2021/05/02 02:39:33;;;;;;;45.80;34.53;;;6.30;99.90;;;;;;4927553;29;20215;-83
2021/05/02 02:42:01;;;;;;;52.30;37.25;;;6.30;99.90;;;;;;4926130;29;20217;-83
2021/05/02 02:44:28;;;;;;;41.75;30.63;;;6.30;99.90;;;;;;4925778;29;20241;-84
2021/05/02 02:46:57;;;;;;;45.90;35.47;;;6.30;99.90;;;;;;4927070;29;20214;-84
2021/05/02 02:49:32;;;;;;;48.05;36.47;;;6.30;99.90;;;;;;4925835;29;20680;-83
2021/05/02 02:52:02;;;;;;;43.88;35.65;;;6.30;99.90;;;;;;4924998;29;20214;-84
2021/05/02 02:54:31;;;;;;;51.00;35.58;;;6.20;99.90;;;;;;4925217;29;20230;-84
2021/05/02 02:56:59;;;;;;;58.17;37.08;;;6.20;99.90;;;;;;4925671;29;20219;-83
2021/05/02 02:59:29;;;;;;;52.40;39.47;;;6.20;99.90;;;;;;4923255;29;20215;-83
2021/05/02 03:01:56;;;;;;;43.03;34.33;;;6.20;99.90;;;;;;4923857;29;20214;-83
2021/05/02 03:04:24;;;;;;;54.00;37.63;;;6.20;99.90;;;;;;4924035;29;20321;-83
2021/05/02 03:06:53;;;;;;;52.80;37.47;;;6.30;99.90;;;;;;4924515;29;20701;-83
2021/05/02 03:09:21;;;;;;;53.70;39.03;;;6.20;99.90;;;;;;4924699;29;20233;-84
2021/05/02 03:11:50;;;;;;;46.88;38.45;;;6.20;99.90;;;;;;4924617;29;20216;-83
2021/05/02 03:14:16;;;;;;;50.75;40.22;;;6.20;99.90;;;;;;4924307;29;20709;-84
2021/05/02 03:16:44;;;;;;;52.65;38.60;;;6.20;99.90;;;;;;4924630;29;20207;-83
2021/05/02 03:19:15;;;;;;;51.58;37.25;;;6.20;99.90;;;;;;4924917;29;20691;-84
2021/05/02 03:21:47;;;;;;;57.72;41.45;;;6.20;99.90;;;;;;4925102;29;20210;-84
2021/05/02 03:24:17;;;;;;;48.72;37.80;;;6.20;99.90;;;;;;4926393;29;20226;-84
2021/05/02 03:26:46;;;;;;;59.00;40.42;;;6.20;99.90;;;;;;4926366;29;20689;-83
2021/05/02 03:29:14;;;;;;;56.55;40.67;;;6.10;99.90;;;;;;4926015;29;20242;-83
2021/05/02 03:31:41;;;;;;;57.85;38.75;;;6.10;99.90;;;;;;4926330;29;20214;-82
2021/05/02 03:34:11;;;;;;;57.58;41.83;;;6.10;99.90;;;;;;4927253;29;20229;-83
2021/05/02 03:36:45;;;;;;;54.45;40.83;;;6.10;99.90;;;;;;4927607;29;20215;-84
2021/05/02 03:39:12;;;;;;;60.33;42.63;;;6.20;99.90;;;;;;4928601;29;20242;-84
2021/05/02 03:41:40;;;;;;;57.90;40.70;;;6.20;99.90;;;;;;4926907;29;20206;-84
2021/05/02 03:44:06;;;;;;;53.17;40.83;;;6.20;99.90;;;;;;4926786;29;20230;-82
2021/05/02 03:46:33;;;;;;;53.00;40.53;;;6.20;99.90;;;;;;4926128;29;20214;-84
2021/05/02 03:49:01;;;;;;;64.82;46.38;;;6.10;99.90;;;;;;4925582;29;20279;-84
2021/05/02 03:51:29;;;;;;;64.40;43.33;;;6.10;99.90;;;;;;4925855;29;20222;-83
2021/05/02 03:53:56;;;;;;;61.53;44.10;;;6.10;99.90;;;;;;4926836;29;20277;-83
2021/05/02 03:56:34;;;;;;;59.42;41.40;;;6.10;99.90;;;;;;4927068;29;20229;-82
2021/05/02 03:59:10;;;;;;;58.47;40.55;;;6.10;99.90;;;;;;4926664;29;20218;-82
2021/05/02 04:01:36;;;;;;;52.67;40.38;;;6.10;99.90;;;;;;4925644;29;20217;-83
2021/05/02 04:04:03;;;;;;;55.90;42.10;;;6.20;99.90;;;;;;4924977;29;20235;-83
2021/05/02 04:06:29;;;;;;;46.47;37.97;;;6.20;99.90;;;;;;4925328;29;20207;-83
2021/05/02 04:08:56;;;;;;;51.40;39.50;;;6.30;99.90;;;;;;4924695;29;20214;-83
2021/05/02 04:11:22;;;;;;;59.00;43.65;;;6.30;99.90;;;;;;4924253;29;20266;-83
2021/05/02 04:13:48;;;;;;;47.97;38.28;;;6.40;99.90;;;;;;4924808;29;20230;-83
2021/05/02 04:16:17;;;;;;;49.92;38.83;;;6.50;99.90;;;;;;4924818;29;20218;-83
2021/05/02 04:18:43;;;;;;;49.80;39.63;;;6.60;99.90;;;;;;4924864;29;20214;-82
2021/05/02 04:21:10;;;;;;;48.40;37.55;;;6.70;99.90;;;;;;4925438;29;20219;-83
2021/05/02 04:23:37;;;;;;;46.95;35.95;;;6.80;99.90;;;;;;4925471;29;20234;-83
2021/05/02 04:26:03;;;;;;;49.05;36.78;;;6.80;99.90;;;;;;4925567;29;20211;-84
2021/05/02 04:28:30;;;;;;;43.72;34.53;;;6.90;99.90;;;;;;4925501;29;20245;-84
2021/05/02 04:30:56;;;;;;;43.38;36.13;;;6.90;99.90;;;;;;4925993;29;20238;-83
2021/05/02 04:33:23;;;;;;;42.20;34.90;;;7.00;99.90;;;;;;4925217;29;20254;-84
2021/05/02 04:35:49;;;;;;;45.15;37.42;;;7.10;99.90;;;;;;4924711;29;20214;-83
2021/05/02 04:38:15;;;;;;;46.13;36.42;;;7.10;99.90;;;;;;4923720;29;20213;-83
2021/05/02 04:40:41;;;;;;;50.92;38.03;;;7.10;99.90;;;;;;4923430;29;20218;-83
2021/05/02 04:43:10;;;;;;;41.95;34.95;;;7.10;99.90;;;;;;4922462;29;20231;-83
2021/05/02 04:45:36;;;;;;;44.53;35.95;;;7.10;99.90;;;;;;4922336;29;20585;-83
2021/05/02 04:48:03;;;;;;;45.45;38.70;;;7.10;99.90;;;;;;4922537;29;20214;-83
2021/05/02 04:50:30;;;;;;;40.58;35.60;;;7.10;99.90;;;;;;4923034;29;20599;-83
2021/05/02 04:52:56;;;;;;;41.75;35.03;;;7.10;99.90;;;;;;4922038;29;20237;-83
2021/05/02 04:55:23;;;;;;;48.58;36.88;;;7.20;99.90;;;;;;4922305;29;20210;-83
2021/05/02 04:57:49;;;;;;;50.38;37.00;;;7.10;99.90;;;;;;4921995;29;20218;-83
2021/05/02 05:00:16;;;;;;;49.13;35.75;;;7.00;99.90;;;;;;4922417;29;20210;-83
2021/05/02 05:02:42;;;;;;;43.00;36.38;;;7.10;99.90;;;;;;4940316;29;20225;-83
2021/05/02 05:05:11;;;;;;;42.92;36.28;;;7.10;99.90;;;;;;4940631;29;20301;-83
2021/05/02 05:07:38;;;;;;;50.63;37.50;;;7.20;99.90;;;;;;4940712;29;20253;-82
2021/05/02 05:10:05;;;;;;;45.22;35.38;;;7.20;99.90;;;;;;4940411;29;20213;-83
2021/05/02 05:12:32;;;;;;;47.58;36.42;;;7.20;99.90;;;;;;4940811;29;20237;-82
2021/05/02 05:14:58;;;;;;;41.85;34.53;;;7.20;99.90;;;;;;4940851;29;20206;-82
2021/05/02 05:17:24;;;;;;;41.75;35.00;;;7.10;99.90;;;;;;4940846;29;20213;-83
2021/05/02 05:19:50;;;;;;;41.25;34.78;;;7.20;99.90;;;;;;4940861;29;20236;-83
2021/05/02 05:22:16;;;;;;;40.08;34.13;;;7.20;99.90;;;;;;4939720;29;20225;-82
2021/05/02 05:24:44;;;;;;;44.03;35.75;;;7.30;99.90;;;;;;4941024;29;20232;-83
2021/05/02 05:27:12;;;;;;;43.83;33.70;;;7.30;99.90;;;;;;4940758;29;20229;-83
2021/05/02 05:29:38;;;;;;;41.13;34.55;;;7.40;99.90;;;;;;4941176;29;20213;-82
2021/05/02 05:32:05;;;;;;;42.05;34.00;;;7.40;99.90;;;;;;4940813;29;20210;-83
2021/05/02 05:34:31;;;;;;;39.85;31.58;;;7.50;99.90;;;;;;4940739;29;20234;-83
2021/05/02 05:36:57;;;;;;;37.22;33.20;;;7.50;99.90;;;;;;4941108;29;20202;-83
2021/05/02 05:39:24;;;;;;;36.97;29.40;;;7.50;99.90;;;;;;4940710;29;20217;-83
2021/05/02 05:41:51;;;;;;;39.03;31.75;;;7.50;99.90;;;;;;4940759;29;20214;-82
2021/05/02 05:44:18;;;;;;;36.65;33.08;;;7.40;99.90;;;;;;4941167;29;20234;-83
2021/05/02 05:46:44;;;;;;;36.65;32.08;;;7.50;99.90;;;;;;4940471;29;20217;-83
2021/05/02 05:49:11;;;;;;;38.28;32.85;;;7.50;99.90;;;;;;4941031;29;20228;-82
2021/05/02 05:51:37;;;;;;;37.40;31.63;;;7.60;99.90;;;;;;4949647;23;20242;-84
2021/05/02 05:54:04;;;;;;;37.13;32.30;;;7.60;99.90;;;;;;4935244;29;20212;-84
2021/05/02 05:56:30;;;;;;;37.90;32.42;;;7.70;99.90;;;;;;4936715;29;20242;-84
2021/05/02 05:58:57;;;;;;;38.20;32.58;;;7.70;99.90;;;;;;4937994;29;20220;-84
2021/05/02 06:01:23;;;;;;;36.03;31.30;;;7.80;99.90;;;;;;4935951;29;20237;-84
2021/05/02 06:03:51;;;;;;;36.15;30.35;;;7.80;99.90;;;;;;4937591;29;20599;-84
2021/05/02 06:06:17;;;;;;;37.78;30.27;;;7.90;99.90;;;;;;4936836;29;20210;-84
2021/05/02 06:08:43;;;;;;;35.63;29.95;;;7.90;99.90;;;;;;4942478;29;20214;-84
2021/05/02 06:11:10;;;;;;;33.80;30.27;;;8.00;99.90;;;;;;4942631;29;20237;-84
2021/05/02 06:13:36;;;;;;;34.03;30.38;;;8.10;99.90;;;;;;4941494;29;20209;-84
2021/05/02 06:16:03;;;;;;;33.33;29.02;;;8.10;99.90;;;;;;4942096;29;20258;-84
2021/05/02 06:18:30;;;;;;;37.70;30.00;;;8.20;99.90;;;;;;4941859;29;20217;-84
2021/05/02 06:20:57;;;;;;;30.23;27.02;;;8.30;99.90;;;;;;4939096;29;20229;-84
2021/05/02 06:23:24;;;;;;;31.15;27.85;;;8.30;99.90;;;;;;4937564;29;20207;-84
2021/05/02 06:25:50;;;;;;;30.50;27.02;;;8.30;99.90;;;;;;4938346;29;20217;-83
2021/05/02 06:28:16;;;;;;;31.52;28.23;;;8.30;99.90;;;;;;4935791;29;20297;-84
2021/05/02 06:30:42;;;;;;;29.85;26.85;;;8.30;99.90;;;;;;4935394;29;20634;-84
2021/05/02 06:33:09;;;;;;;29.00;25.88;;;8.30;99.90;;;;;;4935994;29;20210;-84
2021/05/02 06:35:36;;;;;;;36.22;26.13;;;8.30;99.90;;;;;;4928054;29;20206;-84
2021/05/02 06:38:02;;;;;;;29.20;26.38;;;8.30;99.90;;;;;;4928290;29;20210;-84
2021/05/02 06:40:28;;;;;;;26.67;23.98;;;8.30;99.90;;;;;;4930015;29;20222;-84
2021/05/02 06:42:54;;;;;;;29.42;25.80;;;8.20;99.90;;;;;;4929055;29;20689;-84
2021/05/02 06:45:20;;;;;;;30.60;25.35;;;8.20;99.90;;;;;;4926577;29;20277;-84
2021/05/02 06:47:47;;;;;;;29.20;26.17;;;8.20;99.90;;;;;;4929704;29;20198;-84
2021/05/02 06:50:14;;;;;;;29.92;26.55;;;8.20;99.90;;;;;;4929156;29;20234;-85
2021/05/02 06:52:41;;;;;;;33.53;28.05;;;8.30;99.90;;;;;;4928527;29;20253;-84
2021/05/02 06:55:08;;;;;;;30.27;26.85;;;8.40;99.90;;;;;;4930383;29;20582;-84
2021/05/02 06:57:35;;;;;;;34.45;26.02;;;8.40;99.90;;;;;;4931214;29;20611;-84
2021/05/02 07:00:01;;;;;;;27.73;24.77;;;8.50;99.90;;;;;;4930229;29;20311;-84
2021/05/02 07:02:27;;;;;;;27.85;24.35;;;8.60;99.90;;;;;;4930887;29;20208;-84
2021/05/02 07:04:53;;;;;;;28.63;25.83;;;8.60;99.90;;;;;;4929714;29;20222;-84
2021/05/02 07:07:20;;;;;;;27.45;24.52;;;8.70;99.90;;;;;;4930928;29;20624;-84
2021/05/02 07:09:47;;;;;;;28.88;24.00;;;8.70;99.90;;;;;;4934500;29;20198;-84
2021/05/02 07:12:13;;;;;;;26.67;23.88;;;8.70;99.90;;;;;;4932940;29;20585;-84
2021/05/02 07:14:40;;;;;;;26.48;23.63;;;8.70;99.90;;;;;;4932843;29;20564;-84
2021/05/02 07:17:07;;;;;;;25.60;22.65;;;8.70;99.90;;;;;;4930670;29;20213;-84
2021/05/02 07:19:34;;;;;;;25.52;23.02;;;8.80;99.90;;;;;;4934409;29;20937;-84
2021/05/02 07:22:02;;;;;;;24.63;22.17;;;8.70;99.90;;;;;;4937118;29;20233;-84
2021/05/02 07:24:30;;;;;;;26.65;23.75;;;8.60;99.90;;;;;;4935451;29;20222;-84
2021/05/02 07:26:56;;;;;;;26.02;23.23;;;8.70;99.90;;;;;;4929711;29;20668;-84
2021/05/02 07:29:25;;;;;;;23.35;21.25;;;8.80;99.90;;;;;;4929742;29;20267;-84
2021/05/02 07:31:51;;;;;;;20.92;18.92;;;8.90;99.90;;;;;;4928629;29;20289;-85
2021/05/02 07:34:19;;;;;;;22.13;19.38;;;9.00;99.90;;;;;;4930288;29;20213;-85
2021/05/02 07:36:45;;;;;;;21.95;19.75;;;9.10;99.90;;;;;;4930005;29;20354;-85
2021/05/02 07:39:11;;;;;;;21.52;19.23;;;9.00;99.90;;;;;;4929157;29;20218;-84
2021/05/02 07:41:38;;;;;;;20.80;18.90;;;9.00;99.90;;;;;;4929057;29;20245;-84
2021/05/02 07:44:05;;;;;;;22.45;20.23;;;8.90;99.90;;;;;;4927774;29;20646;-84
2021/05/02 07:46:31;;;;;;;20.85;18.75;;;8.80;99.90;;;;;;4925699;29;20220;-84
2021/05/02 07:48:58;;;;;;;26.45;20.77;;;8.80;99.90;;;;;;4922280;29;20210;-84
2021/05/02 07:51:24;;;;;;;22.13;19.73;;;8.80;99.90;;;;;;4921885;29;20732;-85
2021/05/02 07:53:50;;;;;;;20.70;18.60;;;8.90;99.90;;;;;;4922897;29;20710;-84
2021/05/02 07:56:16;;;;;;;21.40;18.90;;;9.00;99.90;;;;;;4922593;29;20215;-85
2021/05/02 07:58:43;;;;;;;20.58;18.42;;;9.10;99.90;;;;;;4921173;29;20223;-85
2021/05/02 08:01:09;;;;;;;21.95;19.83;;;9.20;99.90;;;;;;4924654;29;20720;-85
2021/05/02 08:03:36;;;;;;;22.58;20.17;;;9.20;99.90;;;;;;4925483;29;20219;-85
2021/05/02 08:06:02;;;;;;;19.52;17.70;;;9.30;99.90;;;;;;4924902;29;20211;-84
2021/05/02 08:08:28;;;;;;;18.92;17.02;;;9.40;99.90;;;;;;4924438;29;20242;-85
2021/05/02 08:10:55;;;;;;;17.83;16.13;;;9.50;99.90;;;;;;4923092;29;20295;-85
2021/05/02 08:13:21;;;;;;;21.92;18.05;;;9.50;99.90;;;;;;4924442;29;20273;-85
2021/05/02 08:15:48;;;;;;;21.40;19.20;;;9.60;99.90;;;;;;4924901;29;20217;-85
2021/05/02 08:18:15;;;;;;;20.25;18.25;;;9.60;99.90;;;;;;4924102;29;20693;-85
2021/05/02 08:20:41;;;;;;;19.65;17.55;;;9.70;99.90;;;;;;4922867;29;20227;-85
2021/05/02 08:23:08;;;;;;;17.98;16.17;;;9.60;99.90;;;;;;4922758;29;20221;-85
2021/05/02 08:25:35;;;;;;;19.77;16.75;;;9.40;99.90;;;;;;4930212;29;20230;-83
2021/05/02 08:28:01;;;;;;;21.52;19.05;;;9.30;99.90;;;;;;4932310;29;20242;-83
2021/05/02 08:30:27;;;;;;;19.17;17.25;;;9.30;99.90;;;;;;4932564;29;20235;-82
2021/05/02 08:32:54;;;;;;;20.88;16.98;;;9.50;99.90;;;;;;4931940;29;20215;-83
2021/05/02 08:35:20;;;;;;;18.10;16.17;;;9.70;99.90;;;;;;4932666;29;20203;-82
2021/05/02 08:37:46;;;;;;;18.42;16.65;;;9.90;99.90;;;;;;4932691;29;20212;-83
2021/05/02 08:40:14;;;;;;;18.85;16.85;;;10.00;99.90;;;;;;4933041;29;20227;-82
2021/05/02 08:42:40;;;;;;;18.27;16.52;;;10.10;99.90;;;;;;4932545;29;20222;-82
2021/05/02 08:45:08;;;;;;;19.75;17.77;;;10.20;99.90;;;;;;4933042;29;20231;-82
2021/05/02 08:47:36;;;;;;;16.98;15.20;;;10.00;99.90;;;;;;4932884;29;20206;-82
2021/05/02 08:50:04;;;;;;;18.92;17.02;;;9.90;99.90;;;;;;4933381;29;20231;-82
2021/05/02 08:52:31;;;;;;;18.30;16.58;;;9.80;99.90;;;;;;4932429;29;20277;-82
2021/05/02 08:54:57;;;;;;;17.58;15.70;;;9.80;99.90;;;;;;4932726;29;20205;-82
2021/05/02 08:57:23;;;;;;;18.15;16.35;;;9.90;99.90;;;;;;4932418;29;20237;-82
2021/05/02 08:59:50;;;;;;;19.08;17.20;;;9.80;99.90;;;;;;4931068;29;20235;-83
2021/05/02 09:02:26;;;;;;;18.83;17.07;;;9.90;99.90;;;;;;4925451;29;20211;-85
2021/05/02 09:04:53;;;;;;;16.88;15.27;;;9.90;99.90;;;;;;4927599;29;20484;-84
2021/05/02 09:07:21;;;;;;;18.75;16.95;;;9.90;99.90;;;;;;4928599;29;20215;-85
2021/05/02 09:09:49;;;;;;;17.80;16.10;;;10.00;99.90;;;;;;4927556;29;20208;-85
2021/05/02 09:12:26;;;;;;;18.70;16.90;;;10.20;99.90;;;;;;4923753;29;20479;-85
2021/05/02 09:14:53;;;;;;;18.63;16.80;;;10.30;99.90;;;;;;4923064;29;20665;-85
2021/05/02 09:17:26;;;;;;;17.60;15.80;;;10.30;99.90;;;;;;4925121;29;20465;-85
2021/05/02 09:19:53;;;;;;;16.92;15.35;;;10.40;99.90;;;;;;4923059;29;20498;-84
2021/05/02 09:22:22;;;;;;;18.20;16.40;;;10.40;99.90;;;;;;4932414;29;20696;-85
2021/05/02 09:25:04;;;;;;;18.60;17.00;;;10.40;99.90;;;;;;4940080;29;20216;-86
2021/05/02 09:27:31;;;;;;;16.83;15.33;;;10.40;99.90;;;;;;4926404;29;20471;-85
2021/05/02 09:30:20;;;;;;;19.73;18.03;;;10.50;99.90;;;;;;4919257;29;20452;-85
2021/05/02 09:32:49;;;;;;;18.17;16.47;;;10.70;99.90;;;;;;4917511;29;20464;-87
2021/05/02 09:35:25;;;;;;;19.87;17.77;;;10.70;99.90;;;;;;4923949;29;20461;-85
2021/05/02 09:38:10;;;;;;;18.97;17.37;;;10.70;99.90;;;;;;4922226;29;20452;-85
2021/05/02 09:40:47;;;;;;;18.10;16.40;;;10.90;99.90;;;;;;4919245;29;20532;-86
2021/05/02 09:43:34;;;;;;;17.60;15.90;;;11.10;99.90;;;;;;4919455;29;20457;-86
2021/05/02 09:46:27;;;;;;;18.03;16.33;;;11.30;99.90;;;;;;4924252;29;20468;-86
2021/05/02 09:49:11;;;;;;;18.10;16.20;;;11.20;99.90;;;;;;4923742;29;20481;-85
2021/05/02 09:51:39;;;;;;;18.53;17.03;;;11.30;99.90;;;;;;4923167;29;20560;-85
2021/05/02 09:54:09;;;;;;;19.37;17.50;;;11.40;99.90;;;;;;4923411;29;20822;-85
2021/05/02 09:56:37;;;;;;;19.90;18.10;;;11.30;99.90;;;;;;4923674;29;20457;-85
2021/05/02 09:59:05;;;;;;;20.17;18.33;;;11.30;99.90;;;;;;4923419;29;20586;-85
2021/05/02 10:01:31;;;;;;;18.00;16.20;;;11.20;99.90;;;;;;4921252;29;20474;-85
2021/05/02 10:04:00;;;;;;;18.37;16.67;;;11.20;99.90;;;;;;4921009;29;20500;-85
2021/05/02 10:06:34;;;;;;;16.70;15.10;;;11.30;99.90;;;;;;4921076;29;20465;-85
2021/05/02 10:09:06;;;;;;;18.90;17.10;;;11.40;99.90;;;;;;4923946;29;20512;-85
2021/05/02 10:11:34;;;;;;;17.57;15.87;;;11.50;99.90;;;;;;4925386;29;20892;-85
2021/05/02 10:14:03;;;;;;;19.37;17.57;;;11.60;99.80;;;;;;4925138;29;20465;-85
2021/05/02 10:16:30;;;;;;;19.07;17.03;;;11.90;98.80;;;;;;4924997;29;20461;-85
2021/05/02 10:18:59;;;;;;;16.57;15.07;;;12.20;99.90;;;;;;4923997;29;20458;-85
2021/05/02 10:21:25;;;;;;;17.23;15.73;;;12.40;99.90;;;;;;4925244;29;20485;-84
2021/05/02 10:23:51;;;;;;;15.57;13.97;;;12.20;97.90;;;;;;4925220;29;20954;-85
2021/05/02 10:26:18;;;;;;;17.97;16.37;;;11.90;98.00;;;;;;4925371;29;20489;-85
2021/05/02 10:28:47;;;;;;;19.23;17.30;;;11.70;99.10;;;;;;4925596;29;20502;-85
2021/05/02 10:31:15;;;;;;;17.50;15.77;;;11.50;98.70;;;;;;4925223;29;20540;-85
2021/05/02 10:33:43;;;;;;;17.00;15.50;;;11.50;99.90;;;;;;4925362;29;20456;-84
2021/05/02 10:36:11;;;;;;;18.43;16.80;;;11.50;99.10;;;;;;4925863;29;20545;-84
2021/05/02 10:38:51;;;;;;;18.33;16.63;;;11.30;99.10;;;;;;4926484;29;20461;-85
2021/05/02 10:41:22;;;;;;;16.23;14.70;;;11.40;99.70;;;;;;4926808;29;20499;-85
2021/05/02 10:43:50;;;;;;;18.67;16.37;;;11.60;99.60;;;;;;4926159;29;20465;-85
2021/05/02 10:46:45;;;;;;;16.33;14.83;;;11.70;99.30;;;;;;4925985;29;20525;-85
2021/05/02 10:49:32;;;;;;;13.00;11.70;;;11.60;97.80;;;;;;4926569;29;20488;-85
2021/05/02 10:52:33;;;;;;;15.43;14.03;;;11.50;97.00;;;;;;4925492;29;20480;-85
2021/05/02 10:55:16;;;;;;;15.50;14.17;;;11.50;97.90;;;;;;4925596;29;20448;-85
2021/05/02 10:57:42;;;;;;;17.10;15.40;;;11.50;98.10;;;;;;4928706;29;20464;-85
2021/05/02 11:00:11;;;;;;;16.53;15.03;;;11.60;98.70;;;;;;4928266;29;20528;-83
2021/05/02 11:02:39;;;;;;;15.10;13.90;;;11.70;98.20;;;;;;4934799;29;20456;-83
2021/05/02 11:05:08;;;;;;;15.30;13.90;;;11.90;99.70;;;;;;4935603;29;20512;-83
2021/05/02 11:07:36;;;;;;;14.73;13.37;;;12.10;99.50;;;;;;4935133;29;20519;-83
2021/05/02 11:13:22;;;;;;;14.50;13.23;;;12.20;97.10;;;;;;4763094;23;20488;-84
2021/05/02 11:15:51;;;;;;;15.60;14.00;;;12.20;96.20;;;;;;4947641;29;20467;-84
2021/05/02 11:18:25;;;;;;;17.07;15.40;;;12.20;96.60;;;;;;4927861;29;20457;-83
2021/05/02 11:20:52;;;;;;;14.83;13.60;;;12.10;97.80;;;;;;4939812;29;20532;-83
2021/05/02 11:23:19;;;;;;;17.17;15.77;;;12.40;98.40;;;;;;4939154;29;20504;-83
2021/05/02 11:25:52;;;;;;;15.40;14.00;;;12.50;98.90;;;;;;4940174;29;20485;-83
2021/05/02 11:28:34;;;;;;;15.03;13.73;;;12.40;97.30;;;;;;4925834;29;20465;-85
2021/05/02 11:31:10;;;;;;;15.47;14.17;;;12.50;98.10;;;;;;4922810;29;20477;-84
2021/05/02 11:33:37;;;;;;;16.37;14.90;;;12.50;99.20;;;;;;4926934;29;20947;-85
2021/05/02 11:36:07;;;;;;;14.63;13.30;;;12.20;97.10;;;;;;4927438;29;20521;-84
2021/05/02 11:38:51;;;;;;;14.20;13.00;;;12.00;97.30;;;;;;4924568;29;20806;-83
2021/05/02 11:54:14;;;;;;;12.23;11.07;;;12.50;99.80;;;;;;4920934;29;20467;-80
2021/05/02 11:56:50;;;;;;;14.10;12.80;;;12.20;99.00;;;;;;4927340;29;20447;-83
2021/05/02 11:59:16;;;;;;;15.77;14.47;;;12.00;98.90;;;;;;4917889;29;20466;-82
2021/05/02 12:01:47;;;;;;;15.60;14.40;;;11.70;99.90;;;;;;4911699;29;20539;-79
2021/05/02 12:04:16;;;;;;;16.23;14.70;;;11.60;99.90;;;;;;4914085;29;20489;-80
2021/05/02 12:06:42;;;;;;;18.17;16.60;;;11.40;99.90;;;;;;4910318;29;20473;-81
2021/05/02 12:09:14;;;;;;;17.87;16.30;;;11.40;99.90;;;;;;4906059;29;21291;-82
2021/05/02 12:11:42;;;;;;;15.50;14.10;;;11.50;99.90;;;;;;4903587;29;21322;-81
2021/05/02 12:14:16;;;;;;;15.83;14.40;;;11.80;99.90;;;;;;4902366;29;20894;-81
2021/05/02 12:16:44;;;;;;;15.97;14.57;;;12.00;99.90;;;;;;4903257;29;20469;-81
2021/05/02 12:19:11;;;;;;;15.33;14.03;;;12.40;99.90;;;;;;4902421;29;20459;-81
2021/05/02 12:21:38;;;;;;;16.23;14.93;;;12.50;99.90;;;;;;4902419;29;20489;-82
2021/05/02 12:24:07;;;;;;;16.10;14.80;;;12.40;99.90;;;;;;4904638;29;20521;-82
2021/05/02 12:26:35;;;;;;;12.80;11.70;;;12.20;99.90;;;;;;4905273;29;20520;-83
2021/05/02 12:29:08;;;;;;;17.48;15.77;;;11.40;99.90;;;;;;4905752;29;20489;-84
2021/05/02 14:31:57;;;;;;;;;;;;;;;;;;;;;
2021/05/02 14:34:49;;;;;;;11.73;10.83;;;11.00;99.90;;;;;;4924850;29;20548;-82
2021/05/02 14:37:48;;;;;;;11.50;10.60;;;11.10;99.90;;;;;;4923375;29;20563;-82
2021/05/02 14:40:19;;;;;;;11.87;10.87;;;11.20;99.90;;;;;;4914639;29;20564;-83
2021/05/02 14:42:45;;;;;;;13.90;12.73;;;11.20;99.90;;;;;;4925710;29;20473;-81
2021/05/02 14:45:13;;;;;;;11.60;10.50;;;11.20;99.90;;;;;;4926208;29;20497;-81
2021/05/02 14:47:40;;;;;;;13.47;12.27;;;11.30;99.90;;;;;;4927915;29;20483;-81
2021/05/02 14:50:08;;;;;;;12.90;11.80;;;11.40;99.90;;;;;;4927487;29;20477;-81
2021/05/02 14:52:35;;;;;;;13.40;12.40;;;11.70;99.90;;;;;;4927938;29;20473;-81
2021/05/02 14:55:01;;;;;;;12.00;11.00;;;12.00;99.90;;;;;;4928862;29;20453;-81
2021/05/02 14:57:28;;;;;;;11.80;10.70;;;12.20;99.90;;;;;;4930632;29;20461;-81
2021/05/02 14:59:55;;;;;;;10.80;10.00;;;12.40;99.90;;;;;;4930648;29;20461;-81